Time;durP1;ratioP1;P1;durP2;ratioP2;P2;SDS_P1;SDS_P2;PMS_P1;PMS_P2;Temp;Humidity;BMP_temperature;BMP_pressure;BME280_temperature;BME280_humidity;BME280_pressure;Samples;Min_cycle;Max_cycle;Signal;HPM_P1;HPM_P2
2023/07/25 00:01:11;;;;;;;5.10;2.90;;;;;;;15.13;100.00;99980.67;104935;1263;71947;-68
2023/07/25 00:03:38;;;;;;;6.20;3.50;;;;;;;15.10;100.00;99979.82;104858;1265;61183;-62
2023/07/25 00:06:06;;;;;;;5.50;3.40;;;;;;;15.06;100.00;99982.41;104982;1265;61233;-62
2023/07/25 00:08:33;;;;;;;4.80;3.50;;;;;;;15.00;100.00;99982.39;104834;1261;73541;-61
2023/07/25 00:11:01;;;;;;;4.90;3.30;;;;;;;14.95;100.00;99983.89;104827;1264;66052;-63
2023/07/25 00:13:28;;;;;;;6.20;3.50;;;;;;;14.92;100.00;99983.21;104851;1263;71753;-63
2023/07/25 00:15:55;;;;;;;5.30;3.40;;;;;;;14.89;100.00;99981.33;104883;1260;61740;-62
2023/07/25 00:18:22;;;;;;;5.90;3.10;;;;;;;14.86;100.00;99978.55;104937;1261;61330;-62
2023/07/25 00:20:49;;;;;;;6.40;3.20;;;;;;;14.84;100.00;99981.57;105400;1262;73604;-65
2023/07/25 00:23:16;;;;;;;5.50;4.50;;;;;;;14.84;100.00;99982.10;104922;1265;65984;-69
2023/07/25 00:25:43;;;;;;;4.10;3.20;;;;;;;14.86;100.00;99980.01;104795;1265;71342;-62
2023/07/25 00:28:10;;;;;;;6.20;3.30;;;;;;;14.88;100.00;99981.30;104871;1260;61129;-62
2023/07/25 00:30:39;;;;;;;5.50;3.10;;;;;;;14.89;100.00;99979.67;104816;1263;61293;-63
2023/07/25 00:33:06;;;;;;;6.40;3.80;;;;;;;14.92;100.00;99982.16;104710;1266;74746;-62
2023/07/25 00:35:33;;;;;;;8.60;3.40;;;;;;;14.92;100.00;99982.15;104839;1264;66969;-64
2023/07/25 00:38:03;;;;;;;7.50;4.10;;;;;;;14.91;100.00;99987.13;104659;1267;72504;-63
2023/07/25 00:40:30;;;;;;;6.30;3.30;;;;;;;14.89;100.00;99979.52;104676;1268;61363;-63
2023/07/25 00:42:57;;;;;;;4.30;3.10;;;;;;;14.89;100.00;99980.13;104792;1265;61251;-62
2023/07/25 00:45:24;;;;;;;5.70;3.20;;;;;;;14.89;100.00;99978.54;105027;1260;73470;-69
2023/07/25 00:47:50;;;;;;;5.30;3.30;;;;;;;14.89;100.00;99976.04;104834;1263;67211;-62
2023/07/25 00:50:17;;;;;;;5.20;3.50;;;;;;;14.90;100.00;99980.84;104702;1268;72717;-62
2023/07/25 00:52:44;;;;;;;4.60;3.20;;;;;;;14.87;100.00;99984.54;105218;1261;62010;-62
2023/07/25 00:55:11;;;;;;;4.50;3.60;;;;;;;14.83;100.00;99991.40;104509;1265;61328;-62
2023/07/25 00:57:38;;;;;;;5.50;3.70;;;;;;;14.80;100.00;99993.61;104729;1262;75216;-63
2023/07/25 01:00:06;;;;;;;6.90;4.00;;;;;;;14.74;100.00;99989.63;104924;1264;67481;-62
2023/07/25 01:02:34;;;;;;;6.40;4.00;;;;;;;14.69;100.00;99985.96;104902;1260;71436;-62
2023/07/25 01:05:01;;;;;;;5.50;4.70;;;;;;;14.64;100.00;99984.81;105469;1260;61270;-62
2023/07/25 01:07:30;;;;;;;4.90;4.00;;;;;;;14.59;100.00;99987.96;104315;1267;61206;-70
2023/07/25 01:09:56;;;;;;;8.40;4.30;;;;;;;14.54;100.00;99989.65;104695;1266;75292;-62
2023/07/25 01:12:24;;;;;;;6.70;4.00;;;;;;;14.50;100.00;99990.13;104937;1264;66100;-63
2023/07/25 01:14:51;;;;;;;11.20;4.30;;;;;;;14.45;100.00;99986.34;104816;1259;72658;-62
2023/07/25 01:17:20;;;;;;;5.00;3.70;;;;;;;14.42;100.00;99984.27;105182;1260;61296;-69
2023/07/25 01:19:47;;;;;;;7.00;4.40;;;;;;;14.37;100.00;99985.57;104715;1260;61306;-62
2023/07/25 01:22:14;;;;;;;6.50;4.20;;;;;;;14.34;100.00;99986.63;104826;1260;73124;-61
2023/07/25 01:24:46;;;;;;;6.20;4.50;;;;;;;14.33;100.00;99987.82;104854;1260;65931;-63
2023/07/25 01:27:16;;;;;;;8.30;4.20;;;;;;;14.33;100.00;99991.79;104742;1265;71521;-62
2023/07/25 01:29:43;;;;;;;5.30;4.20;;;;;;;14.32;100.00;99992.04;104812;1266;61331;-62
2023/07/25 01:32:11;;;;;;;5.70;4.50;;;;;;;14.32;100.00;99988.92;104869;1263;61333;-61
2023/07/25 01:34:58;;;;;;;6.50;5.00;;;;;;;14.32;100.00;99986.10;104385;1264;75090;-62
2023/07/25 01:37:25;;;;;;;6.60;4.40;;;;;;;14.33;100.00;99987.95;105064;1263;66920;-65
2023/07/25 01:39:52;;;;;;;7.70;5.00;;;;;;;14.33;100.00;99990.27;104892;1260;73285;-62
2023/07/25 01:42:19;;;;;;;6.20;4.20;;;;;;;14.34;100.00;99992.66;104913;1261;61247;-61
2023/07/25 01:44:46;;;;;;;5.80;4.40;;;;;;;14.33;100.00;99991.70;105135;1261;61369;-70
2023/07/25 01:47:13;;;;;;;6.50;5.00;;;;;;;14.32;100.00;99994.83;104840;1265;75330;-62
2023/07/25 01:49:40;;;;;;;6.30;4.90;;;;;;;14.33;100.00;99998.56;104335;1266;67086;-62
2023/07/25 01:52:07;;;;;;;7.70;5.40;;;;;;;14.33;100.00;99998.39;104665;1266;72696;-61
2023/07/25 01:54:34;;;;;;;6.30;4.90;;;;;;;14.32;100.00;99999.86;104592;1260;61712;-63
2023/07/25 01:57:01;;;;;;;6.30;4.30;;;;;;;14.32;100.00;100004.57;104567;1263;61363;-65
2023/07/25 01:59:29;;;;;;;7.50;4.60;;;;;;;14.32;100.00;100007.44;104380;1266;74636;-69
2023/07/25 02:01:56;;;;;;;5.90;4.60;;;;;;;14.31;100.00;100007.46;104797;1265;67749;-62
2023/07/25 02:04:23;;;;;;;7.20;5.00;;;;;;;14.32;100.00;100011.55;104704;1267;72703;-62
2023/07/25 02:06:50;;;;;;;8.80;5.30;;;;;;;14.35;100.00;100009.67;104922;1263;62060;-62
2023/07/25 02:09:17;;;;;;;5.20;4.20;;;;;;;14.45;100.00;100014.40;104574;1262;61268;-70
2023/07/25 02:11:44;;;;;;;5.80;4.50;;;;;;;14.66;100.00;100019.17;105099;1263;75087;-69
2023/07/25 02:14:11;;;;;;;7.00;4.80;;;;;;;14.96;100.00;100022.80;104825;1264;64861;-62
2023/07/25 02:16:39;;;;;;;6.40;4.20;;;;;;;15.30;100.00;100022.70;104876;1264;72643;-63
2023/07/25 02:19:06;;;;;;;6.10;4.20;;;;;;;15.65;100.00;100025.04;104883;1273;61203;-69
2023/07/25 02:21:34;;;;;;;7.50;4.10;;;;;;;16.01;100.00;100023.79;104653;1260;61278;-61
2023/07/25 02:24:00;;;;;;;7.50;4.40;;;;;;;16.46;100.00;100019.84;104803;1263;73762;-62
2023/07/25 02:26:27;;;;;;;9.00;4.90;;;;;;;16.93;100.00;100022.02;104652;1267;67060;-63
2023/07/25 02:28:54;;;;;;;6.00;3.90;;;;;;;17.25;100.00;100024.98;104598;1268;72754;-63
2023/07/25 02:31:21;;;;;;;6.10;4.20;;;;;;;17.57;100.00;100023.29;104860;1276;61347;-63
2023/07/25 02:33:48;;;;;;;6.20;4.60;;;;;;;17.91;100.00;100021.10;105082;1265;61274;-70
2023/07/25 02:36:16;;;;;;;6.50;4.10;;;;;;;18.08;100.00;100013.79;104527;1265;74128;-63
2023/07/25 02:38:42;;;;;;;7.00;4.60;;;;;;;18.11;100.00;100007.73;104835;1263;66055;-61
2023/07/25 02:41:09;;;;;;;4.40;3.40;;;;;;;18.08;100.00;100001.23;104816;1265;72710;-62
2023/07/25 02:43:36;;;;;;;6.00;4.60;;;;;;;17.98;100.00;99996.07;105350;1264;61222;-70
2023/07/25 02:46:04;;;;;;;5.70;4.40;;;;;;;17.86;100.00;99994.44;104823;1266;61382;-63
2023/07/25 02:48:32;;;;;;;8.80;6.10;;;;;;;17.72;100.00;99993.75;104840;1265;73686;-61
2023/07/25 02:51:00;;;;;;;11.00;7.20;;;;;;;17.61;100.00;99999.74;104891;1265;298133;-63
2023/07/25 02:53:28;;;;;;;12.40;7.00;;;;;;;17.52;100.00;100001.73;104855;1260;72554;-63
2023/07/25 02:55:55;;;;;;;8.30;5.60;;;;;;;17.47;100.00;99994.85;105056;1263;61440;-70
2023/07/25 02:58:23;;;;;;;9.90;6.20;;;;;;;17.45;100.00;99987.65;104799;1266;61344;-62
2023/07/25 03:00:50;;;;;;;5.70;4.30;;;;;;;17.55;100.00;99993.05;104911;1266;74676;-62
2023/07/25 03:03:17;;;;;;;5.90;4.40;;;;;;;17.79;100.00;100000.95;104893;1261;67143;-62
2023/07/25 03:05:44;;;;;;;8.20;4.40;;;;;;;18.22;100.00;99999.89;105440;1264;72552;-70
2023/07/25 03:08:11;;;;;;;6.70;4.60;;;;;;;19.03;100.00;99999.23;104782;1265;62294;-62
2023/07/25 03:10:38;;;;;;;8.10;4.20;;;;;;;20.14;100.00;99996.23;104888;1264;61246;-62
2023/07/25 03:13:05;;;;;;;5.60;4.20;;;;;;;21.35;100.00;99985.67;104924;1265;74636;-62
2023/07/25 03:15:32;;;;;;;8.00;3.70;;;;;;;22.59;100.00;99966.33;104759;1265;67126;-62
2023/07/25 03:17:59;;;;;;;9.20;4.70;;;;;;;23.81;100.00;99951.83;105137;1265;71174;-69
2023/07/25 03:20:26;;;;;;;8.00;4.60;;;;;;;24.96;100.00;99936.91;104371;1274;61230;-61
2023/07/25 03:22:53;;;;;;;5.70;4.40;;;;;;;25.97;100.00;99923.84;104789;1265;61637;-60
2023/07/25 03:25:20;;;;;;;6.70;4.70;;;;;;;26.84;100.00;99916.06;104802;1265;74606;-59
2023/07/25 03:27:47;;;;;;;9.40;5.30;;;;;;;27.67;100.00;99914.47;104555;1265;67147;-61
2023/07/25 03:30:14;;;;;;;8.60;5.30;;;;;;;28.41;100.00;99920.11;104951;1266;71391;-61
2023/07/25 03:32:41;;;;;;;7.30;4.90;;;;;;;29.08;100.00;99920.34;104586;1260;61348;-61
2023/07/25 03:35:08;;;;;;;6.10;5.10;;;;;;;29.74;100.00;99921.51;104907;1261;61913;-60
2023/07/25 03:37:35;;;;;;;8.20;4.80;;;;;;;30.28;100.00;99921.61;104720;1266;74721;-59
2023/07/25 03:40:02;;;;;;;7.10;5.20;;;;;;;30.75;97.33;99923.84;104796;1266;67089;-60
2023/07/25 03:42:29;;;;;;;6.70;4.40;;;;;;;31.14;90.79;99926.15;104865;1266;73917;-67
2023/07/25 03:44:56;;;;;;;8.00;5.10;;;;;;;31.54;81.86;99927.46;104875;1266;61210;-62
2023/07/25 03:47:23;;;;;;;8.90;5.20;;;;;;;31.93;76.12;99926.55;104831;1262;61348;-62
2023/07/25 03:49:51;;;;;;;6.40;4.60;;;;;;;32.29;68.20;99932.17;104881;1264;74723;-60
2023/07/25 03:52:18;;;;;;;7.80;5.00;;;;;;;32.60;64.95;99939.63;105278;1265;67043;-61
2023/07/25 03:54:45;;;;;;;8.20;4.60;;;;;;;32.86;60.85;99940.67;106791;1264;64727;-68
2023/07/25 03:57:12;;;;;;;7.40;4.90;;;;;;;33.15;57.86;99939.83;104761;1265;61235;-61
2023/07/25 03:59:39;;;;;;;7.90;5.20;;;;;;;33.57;54.92;99939.23;104726;1265;61235;-60
2023/07/25 04:02:06;;;;;;;8.00;4.70;;;;;;;34.04;51.44;99938.98;104605;1265;65923;-61
2023/07/25 04:04:33;;;;;;;7.60;5.10;;;;;;;34.43;47.78;99938.78;104919;1265;67267;-62
2023/07/25 04:07:01;;;;;;;8.60;5.30;;;;;;;34.72;46.20;99938.31;104397;1274;63486;-62
2023/07/25 04:09:28;;;;;;;9.70;5.60;;;;;;;35.06;44.60;99939.30;104769;1266;61383;-60
2023/07/25 04:11:55;;;;;;;8.90;6.40;;;;;;;35.44;42.92;99939.36;104724;1265;61242;-60
2023/07/25 04:14:23;;;;;;;9.20;6.30;;;;;;;35.75;40.59;99937.98;104775;1260;64617;-62
2023/07/25 04:16:50;;;;;;;10.60;6.30;;;;;;;36.01;39.08;99939.70;104875;1265;61263;-67
2023/07/25 04:19:17;;;;;;;11.20;7.60;;;;;;;36.33;37.75;99941.93;104511;1262;64192;-61
2023/07/25 04:21:44;;;;;;;10.50;7.90;;;;;;;36.59;36.08;99936.45;104704;1265;61156;-61
2023/07/25 04:24:11;;;;;;;8.80;7.40;;;;;;;36.65;34.79;99936.13;104723;1267;61233;-59
2023/07/25 04:26:38;;;;;;;10.50;8.00;;;;;;;36.73;34.81;99932.20;105187;1266;64826;-66
2023/07/25 04:29:05;;;;;;;9.00;7.60;;;;;;;36.90;34.65;99931.35;104849;1266;61445;-66
2023/07/25 04:31:31;;;;;;;11.50;7.00;;;;;;;37.10;34.59;99928.12;104880;1264;63962;-60
2023/07/25 04:33:59;;;;;;;9.30;7.20;;;;;;;37.34;34.01;99922.20;104971;1264;61161;-60
2023/07/25 04:36:28;;;;;;;8.40;7.00;;;;;;;37.57;33.37;99918.64;105122;1261;61283;-60
2023/07/25 04:38:56;;;;;;;8.60;7.00;;;;;;;37.79;33.06;99921.56;104987;1266;65237;-66
2023/07/25 04:41:23;;;;;;;9.90;7.20;;;;;;;38.05;32.82;99917.76;104745;1265;61423;-60
2023/07/25 04:43:50;;;;;;;10.00;7.80;;;;;;;38.28;31.61;99919.18;104706;1265;64086;-60
2023/07/25 04:46:17;;;;;;;8.20;7.20;;;;;;;38.40;30.81;99921.69;105575;1267;61242;-60
2023/07/25 04:48:44;;;;;;;9.00;7.20;;;;;;;38.53;30.18;99922.48;104880;1260;61770;-63
2023/07/25 04:51:11;;;;;;;11.10;7.40;;;;;;;38.65;29.68;99922.92;104793;1267;66184;-66
2023/07/25 04:53:38;;;;;;;10.70;8.20;;;;;;;38.76;29.42;99919.17;104659;1265;61225;-59
2023/07/25 04:56:06;;;;;;;10.50;8.20;;;;;;;38.91;29.43;99920.98;104707;1266;64111;-60
2023/07/25 04:58:33;;;;;;;10.40;7.90;;;;;;;39.10;28.91;99923.84;104718;1267;61505;-66
2023/07/25 05:01:01;;;;;;;11.90;7.50;;;;;;;39.28;28.37;99920.72;104676;1261;61241;-61
2023/07/25 05:03:28;;;;;;;9.60;7.10;;;;;;;39.47;28.04;99920.06;104423;1262;64485;-60
2023/07/25 05:05:56;;;;;;;10.20;8.60;;;;;;;39.65;27.82;99919.31;104779;1261;59918;-60
2023/07/25 05:08:23;;;;;;;12.70;8.40;;;;;;;39.88;27.32;99918.04;104849;1264;63873;-60
2023/07/25 05:10:51;;;;;;;11.60;8.70;;;;;;;39.98;27.03;99916.38;105343;1260;61372;-67
2023/07/25 05:13:19;;;;;;;11.90;8.50;;;;;;;39.99;26.86;99918.33;106804;1261;61343;-65
2023/07/25 05:15:46;;;;;;;13.00;7.80;;;;;;;40.12;26.93;99917.41;104910;1264;65910;-60
2023/07/25 05:18:13;;;;;;;10.30;8.70;;;;;;;40.35;26.71;99919.73;104959;1263;61346;-59
2023/07/25 05:20:41;;;;;;;10.40;8.00;;;;;;;40.61;26.42;99925.06;104899;1264;62678;-61
2023/07/25 05:23:08;;;;;;;8.70;6.30;;;;;;;40.84;25.98;99923.73;104888;1264;61278;-60
2023/07/25 05:25:35;;;;;;;10.40;8.80;;;;;;;41.00;25.78;99924.46;104871;1266;61171;-61
2023/07/25 05:28:02;;;;;;;14.30;9.20;;;;;;;41.17;25.97;99919.86;104888;1264;65981;-60
2023/07/25 05:30:29;;;;;;;10.60;8.80;;;;;;;41.37;25.64;99918.34;104959;1260;61811;-60
2023/07/25 05:32:56;;;;;;;12.30;8.90;;;;;;;41.40;25.48;99919.03;104855;1266;63974;-67
2023/07/25 05:35:23;;;;;;;11.40;9.70;;;;;;;41.35;25.76;99916.15;105103;1263;61282;-66
2023/07/25 05:37:50;;;;;;;10.50;8.60;;;;;;;41.46;25.57;99914.55;104817;1264;61125;-61
2023/07/25 05:40:17;;;;;;;13.10;8.60;;;;;;;41.57;25.46;99913.52;104843;1261;64668;-61
2023/07/25 05:42:44;;;;;;;11.90;9.30;;;;;;;41.51;25.04;99911.46;105210;1264;61315;-60
2023/07/25 05:45:11;;;;;;;13.00;9.50;;;;;;;41.49;25.30;99913.82;104818;1261;63928;-61
2023/07/25 05:47:38;;;;;;;15.90;9.20;;;;;;;41.57;25.26;99911.98;105028;1260;61270;-63
2023/07/25 05:50:06;;;;;;;13.70;9.20;;;;;;;41.67;25.46;99908.61;104892;1263;61335;-61
2023/07/25 05:52:33;;;;;;;14.30;9.10;;;;;;;41.84;25.43;99904.34;104711;1264;66876;-59
2023/07/25 05:55:00;;;;;;;11.50;8.30;;;;;;;42.10;25.21;99903.09;104929;1264;67089;-60
2023/07/25 05:57:27;;;;;;;11.70;8.70;;;;;;;42.23;24.95;99903.66;105242;1264;64153;-64
2023/07/25 05:59:54;;;;;;;15.60;9.00;;;;;;;42.37;24.90;99902.45;104738;1271;61552;-58
2023/07/25 06:02:21;;;;;;;13.70;9.00;;;;;;;42.49;24.36;99901.85;104827;1260;61264;-58
2023/07/25 06:04:48;;;;;;;7.70;7.00;;;;;;;42.40;24.37;99901.65;104963;1261;66103;-67
2023/07/25 06:07:15;;;;;;;12.10;7.30;;;;;;;42.39;24.00;99898.67;104548;1265;61361;-61
2023/07/25 06:09:42;;;;;;;7.30;6.60;;;;;;;42.31;24.42;99904.15;104879;1260;62777;-60
2023/07/25 06:12:10;;;;;;;9.20;7.40;;;;;;;42.24;24.59;99905.23;104820;1264;61550;-58
2023/07/25 06:14:37;;;;;;;8.80;7.80;;;;;;;42.43;24.39;99899.33;104898;1260;61340;-59
2023/07/25 06:17:04;;;;;;;9.10;7.80;;;;;;;42.55;24.19;99893.23;104797;1261;66054;-59
2023/07/25 06:19:31;;;;;;;10.80;7.30;;;;;;;42.46;24.38;99894.21;105030;1261;61334;-63
2023/07/25 06:21:58;;;;;;;6.90;6.20;;;;;;;42.36;24.12;99896.13;104837;1261;62751;-61
2023/07/25 06:24:25;;;;;;;10.00;7.30;;;;;;;42.29;24.21;99889.86;104826;1264;61270;-61
2023/07/25 06:26:52;;;;;;;10.10;6.70;;;;;;;42.30;24.40;99890.16;104852;1261;61230;-60
2023/07/25 06:29:19;;;;;;;7.80;6.00;;;;;;;42.26;24.22;99881.18;104865;1264;65958;-62
2023/07/25 06:31:46;;;;;;;7.30;6.50;;;;;;;42.15;24.37;99872.38;104859;1261;61375;-61
2023/07/25 06:34:13;;;;;;;8.80;6.00;;;;;;;42.01;24.41;99870.95;104782;1261;64080;-62
2023/07/25 06:36:40;;;;;;;6.60;5.60;;;;;;;41.90;24.52;99871.68;104938;1264;61382;-60
2023/07/25 06:39:07;;;;;;;8.40;6.40;;;;;;;41.94;24.60;99870.48;104975;1261;61326;-66
2023/07/25 06:41:35;;;;;;;8.00;5.80;;;;;;;42.02;24.44;99865.85;104915;1260;65958;-60
2023/07/25 06:44:02;;;;;;;6.50;5.10;;;;;;;42.01;24.51;99866.55;104998;1261;61241;-61
2023/07/25 06:46:30;;;;;;;5.20;4.70;;;;;;;42.06;23.88;99874.98;104887;1267;64130;-60
2023/07/25 06:48:57;;;;;;;6.60;4.70;;;;;;;42.20;23.61;99878.27;104807;1264;61350;-61
2023/07/25 06:51:24;;;;;;;7.10;5.00;;;;;;;42.33;23.99;99885.67;105129;1260;61245;-67
2023/07/25 06:53:51;;;;;;;6.00;4.20;;;;;;;42.50;23.67;99892.42;105037;1264;73350;-65
2023/07/25 06:56:18;;;;;;;4.50;4.10;;;;;;;42.56;22.75;99895.83;104900;1264;61257;-61
2023/07/25 06:58:45;;;;;;;7.60;4.10;;;;;;;42.32;22.64;99894.27;104838;1261;63005;-60
2023/07/25 07:01:12;;;;;;;5.50;4.20;;;;;;;42.04;23.01;99886.17;104824;1261;61529;-60
2023/07/25 07:03:39;;;;;;;4.40;4.00;;;;;;;42.02;23.34;99885.56;104486;1264;61263;-60
2023/07/25 07:06:06;;;;;;;6.30;3.90;;;;;;;42.03;22.94;99883.05;104921;1261;65877;-61
2023/07/25 07:08:33;;;;;;;3.70;3.00;;;;;;;41.97;23.17;99881.40;104919;1261;61125;-61
2023/07/25 07:11:00;;;;;;;4.20;3.80;;;;;;;41.97;22.56;99882.57;104844;1260;62786;-60
2023/07/25 07:13:27;;;;;;;3.90;3.50;;;;;;;41.83;22.58;99881.20;104892;1261;61334;-62
2023/07/25 07:15:55;;;;;;;4.30;3.80;;;;;;;41.50;23.14;99877.94;105112;1267;61244;-63
2023/07/25 07:18:22;;;;;;;4.30;3.70;;;;;;;41.08;23.43;99872.63;104947;1260;66804;-62
2023/07/25 07:20:49;;;;;;;3.10;2.50;;;;;;;40.85;22.90;99863.28;104839;1264;61280;-60
2023/07/25 07:23:16;;;;;;;3.80;3.40;;;;;;;40.78;23.11;99853.64;105145;1264;63857;-62
2023/07/25 07:25:43;;;;;;;7.80;3.10;;;;;;;40.95;23.01;99851.61;104857;1261;61412;-62
2023/07/25 07:28:11;;;;;;;4.10;3.00;;;;;;;41.11;22.46;99846.37;104894;1261;61260;-62
2023/07/25 07:30:38;;;;;;;5.20;3.30;;;;;;;41.18;22.57;99845.94;104889;1264;75176;-62
2023/07/25 07:33:05;;;;;;;4.60;2.80;;;;;;;41.20;22.78;99852.56;104849;1264;61224;-62
2023/07/25 07:35:32;;;;;;;7.20;3.80;;;;;;;41.23;23.08;99856.53;104880;1261;64194;-62
2023/07/25 07:37:59;;;;;;;3.70;3.40;;;;;;;41.24;22.86;99864.02;104792;1261;61262;-62
2023/07/25 07:40:28;;;;;;;4.60;3.80;;;;;;;41.28;22.60;99864.62;104941;1264;61210;-60
2023/07/25 07:42:55;;;;;;;3.50;3.00;;;;;;;41.26;23.07;99862.59;104838;1261;66084;-62
2023/07/25 07:45:23;;;;;;;4.00;3.60;;;;;;;41.27;22.98;99862.83;105116;1264;59615;-67
2023/07/25 07:47:51;;;;;;;3.90;3.40;;;;;;;41.27;22.53;99861.80;104693;1260;63067;-61
2023/07/25 07:50:19;;;;;;;4.10;3.40;;;;;;;41.13;22.42;99857.53;104938;1264;61712;-70
2023/07/25 07:52:46;;;;;;;4.70;3.30;;;;;;;40.86;22.57;99852.12;104883;1260;61264;-60
2023/07/25 07:55:13;;;;;;;4.30;3.10;;;;;;;40.39;23.25;99855.48;105179;1263;65838;-68
2023/07/25 07:57:45;;;;;;;4.00;3.00;;;;;;;40.11;24.36;99856.40;104854;1260;61287;-59
2023/07/25 08:00:14;;;;;;;5.70;3.40;;;;;;;40.20;24.45;99861.06;105026;1260;64048;-63
2023/07/25 08:02:41;;;;;;;2.90;2.40;;;;;;;40.27;24.00;99862.94;104857;1265;61267;-60
2023/07/25 08:05:10;;;;;;;3.40;3.10;;;;;;;40.28;23.52;99860.98;104810;1262;61362;-59
2023/07/25 08:07:37;;;;;;;3.90;2.90;;;;;;;40.21;23.20;99857.89;104695;1266;66063;-59
2023/07/25 08:10:04;;;;;;;7.50;4.30;;;;;;;40.15;23.56;99853.68;104949;1261;61347;-59
2023/07/25 08:12:33;;;;;;;3.20;2.90;;;;;;;40.10;23.76;99851.57;104904;1260;64154;-62
2023/07/25 08:14:59;;;;;;;3.60;3.20;;;;;;;39.91;23.51;99848.31;104880;1260;61252;-63
2023/07/25 08:17:27;;;;;;;4.40;3.20;;;;;;;39.85;24.06;99848.09;104952;1260;61339;-67
2023/07/25 08:19:53;;;;;;;3.80;3.00;;;;;;;39.95;24.22;99854.86;104859;1260;66166;-59
2023/07/25 08:22:20;;;;;;;4.00;3.30;;;;;;;40.12;24.05;99855.95;105183;1259;61235;-67
2023/07/25 08:24:50;;;;;;;3.80;2.80;;;;;;;40.28;23.12;99855.75;104906;1260;62794;-60
2023/07/25 08:27:18;;;;;;;4.20;3.20;;;;;;;40.37;23.40;99847.77;104649;1260;61321;-59
2023/07/25 08:29:48;;;;;;;3.60;2.80;;;;;;;40.48;23.74;99843.83;104808;1263;61235;-63
2023/07/25 08:32:15;;;;;;;3.40;3.00;;;;;;;40.54;23.29;99839.52;104881;1263;66146;-63
2023/07/25 08:34:43;;;;;;;5.50;3.70;;;;;;;40.55;22.96;99840.05;104983;1259;61183;-62
2023/07/25 08:37:09;;;;;;;5.50;3.20;;;;;;;40.57;22.98;99840.30;104509;1266;63102;-62
2023/07/25 08:39:36;;;;;;;6.20;3.30;;;;;;;40.61;23.13;99840.22;104926;1259;61320;-68
2023/07/25 08:42:06;;;;;;;6.40;2.90;;;;;;;40.72;23.02;99842.97;105118;1259;61233;-60
2023/07/25 08:44:34;;;;;;;3.10;2.40;;;;;;;40.77;23.26;99848.02;104840;1267;66245;-60
2023/07/25 08:47:06;;;;;;;4.70;2.90;;;;;;;40.80;23.56;99848.63;104798;1260;61280;-60
2023/07/25 08:49:35;;;;;;;3.60;2.30;;;;;;;40.79;23.47;99848.48;104837;1260;62950;-62
2023/07/25 08:52:03;;;;;;;5.50;2.70;;;;;;;40.65;23.25;99843.22;104945;1264;61369;-61
2023/07/25 08:54:31;;;;;;;3.80;2.70;;;;;;;40.48;23.53;99840.85;104878;1261;61244;-61
2023/07/25 08:56:58;;;;;;;5.80;2.70;;;;;;;40.36;23.65;99843.71;104920;1263;66069;-62
2023/07/25 08:59:25;;;;;;;4.10;2.80;;;;;;;40.27;23.91;99846.00;104671;1264;61111;-66
2023/07/25 09:01:52;;;;;;;3.40;2.60;;;;;;;40.10;24.14;99847.52;104750;1264;62701;-61
2023/07/25 09:04:20;;;;;;;4.90;3.10;;;;;;;40.00;24.75;99848.92;105121;1261;61787;-62
2023/07/25 09:06:47;;;;;;;6.00;3.30;;;;;;;39.95;24.68;99852.82;105116;1261;61231;-60
2023/07/25 09:09:14;;;;;;;4.40;2.90;;;;;;;39.92;24.48;99856.50;104745;1259;65001;-62
2023/07/25 09:11:41;;;;;;;4.30;2.80;;;;;;;39.78;24.28;99858.69;104809;1264;61318;-60
2023/07/25 09:14:08;;;;;;;3.10;2.50;;;;;;;39.60;24.44;99857.66;104973;1264;62926;-59
2023/07/25 09:16:35;;;;;;;5.70;3.40;;;;;;;39.51;24.36;99853.76;104955;1260;61170;-68
2023/07/25 09:19:02;;;;;;;3.40;2.60;;;;;;;39.33;24.55;99851.64;104845;1260;61226;-60
2023/07/25 09:21:29;;;;;;;5.40;2.90;;;;;;;39.19;25.05;99849.48;105195;1263;65919;-67
2023/07/25 09:23:58;;;;;;;5.50;3.30;;;;;;;39.09;25.44;99843.69;104873;1261;61192;-60
2023/07/25 09:26:28;;;;;;;3.60;3.00;;;;;;;39.05;24.63;99838.63;104829;1265;64410;-62
2023/07/25 09:28:57;;;;;;;7.80;3.70;;;;;;;38.85;25.06;99833.59;104961;1262;61186;-61
2023/07/25 09:31:27;;;;;;;4.60;3.10;;;;;;;38.80;25.16;99830.14;104543;1261;61198;-67
2023/07/25 09:33:55;;;;;;;5.20;3.00;;;;;;;38.79;24.85;99827.80;104767;1261;66833;-61
2023/07/25 09:36:22;;;;;;;4.50;3.00;;;;;;;38.80;25.08;99828.11;104567;1260;61157;-62
2023/07/25 09:38:54;;;;;;;4.00;3.20;;;;;;;38.96;25.36;99830.03;105029;1260;62885;-66
2023/07/25 09:41:22;;;;;;;4.20;3.20;;;;;;;39.08;25.42;99830.92;104847;1265;61269;-62
2023/07/25 09:43:52;;;;;;;3.80;3.10;;;;;;;39.15;25.33;99828.36;104722;1263;62001;-62
2023/07/25 09:46:19;;;;;;;3.70;2.80;;;;;;;39.19;25.08;99825.95;104814;1260;64640;-62
2023/07/25 09:48:48;;;;;;;4.90;3.20;;;;;;;39.15;25.10;99827.44;105023;1261;61121;-61
2023/07/25 09:51:14;;;;;;;3.90;3.50;;;;;;;39.21;25.08;99820.42;104663;1267;62835;-62
2023/07/25 09:53:42;;;;;;;5.00;2.90;;;;;;;39.36;24.87;99820.63;105270;1261;61182;-66
2023/07/25 09:56:10;;;;;;;3.60;2.90;;;;;;;39.46;24.50;99814.55;104857;1260;61226;-62
2023/07/25 09:58:37;;;;;;;4.70;3.00;;;;;;;39.46;24.44;99816.58;104887;1260;65470;-61
2023/07/25 10:01:17;;;;;;;;;;;;;;;39.32;24.24;99813.08;104695;1260;61285;-61
2023/07/25 10:03:44;;;;;;;3.60;2.90;;;;;;;39.14;24.49;99805.17;104930;1261;64017;-61
2023/07/25 10:06:14;;;;;;;5.70;2.80;;;;;;;39.04;24.99;99805.06;104756;1260;61106;-61
2023/07/25 10:08:43;;;;;;;4.80;2.50;;;;;;;39.03;25.30;99805.45;104825;1260;61379;-66
2023/07/25 10:11:28;;;;;;;4.90;3.10;;;;;;;38.98;25.26;99807.45;104345;1260;64766;-61
2023/07/25 10:14:05;;;;;;;4.10;2.60;;;;;;;39.04;25.20;99806.38;104629;1261;61239;-67
2023/07/25 10:16:34;;;;;;;4.80;3.20;;;;;;;39.08;25.34;99807.71;104749;1261;63891;-62
2023/07/25 10:19:01;;;;;;;4.10;3.20;;;;;;;39.03;25.20;99802.64;104642;1267;61297;-64
2023/07/25 10:21:51;;;;;;;3.80;3.00;;;;;;;39.02;25.58;99796.18;104693;1267;61247;-61
2023/07/25 10:24:22;;;;;;;4.40;3.20;;;;;;;39.07;25.96;99792.98;104560;1263;65866;-61
2023/07/25 10:26:56;;;;;;;4.80;3.10;;;;;;;38.98;26.15;99791.66;104694;1267;61427;-62
2023/07/25 10:29:45;;;;;;;4.00;3.00;;;;;;;38.99;25.66;99781.39;104656;1261;62645;-62
2023/07/25 10:32:17;;;;;;;4.60;2.80;;;;;;;38.97;25.97;99775.47;105027;1264;61343;-68
2023/07/25 10:34:52;;;;;;;4.80;3.50;;;;;;;38.89;25.96;99773.88;104692;1260;61273;-61
2023/07/25 10:37:29;;;;;;;3.50;2.90;;;;;;;38.67;25.48;99772.41;104843;1267;66870;-66
2023/07/25 10:40:10;;;;;;;4.10;3.40;;;;;;;38.50;25.49;99775.00;104535;1264;61387;-64
2023/07/25 10:42:44;;;;;;;5.10;3.30;;;;;;;38.21;25.17;99774.08;104872;1264;62842;-61
2023/07/25 10:45:31;;;;;;;4.40;3.30;;;;;;;37.86;26.03;99776.73;105026;1262;61261;-63
2023/07/25 10:47:59;;;;;;;4.20;3.20;;;;;;;37.64;26.38;99780.55;104661;1262;61356;-61
2023/07/25 10:50:47;;;;;;;5.10;3.30;;;;;;;37.56;26.51;99769.14;104833;1260;65907;-62
2023/07/25 10:53:15;;;;;;;6.20;3.00;;;;;;;37.66;26.61;99754.77;105151;1264;59587;-64
2023/07/25 10:56:04;;;;;;;6.60;3.10;;;;;;;37.75;26.49;99752.95;104844;1260;64657;-61
2023/07/25 10:58:38;;;;;;;3.70;3.00;;;;;;;37.64;27.14;99753.04;104736;1260;61352;-60
2023/07/25 11:01:05;;;;;;;3.90;3.20;;;;;;;37.55;27.69;99759.73;104703;1263;61140;-62
2023/07/25 11:03:36;;;;;;;7.10;3.60;;;;;;;37.52;27.57;99760.48;104900;1261;65969;-61
2023/07/25 11:06:05;;;;;;;4.00;3.20;;;;;;;37.48;27.43;99752.21;105003;1260;61116;-62
2023/07/25 11:08:40;;;;;;;4.20;3.40;;;;;;;37.33;27.03;99740.52;104993;1263;64174;-63
2023/07/25 11:11:07;;;;;;;4.20;3.10;;;;;;;37.15;27.98;99738.89;104933;1260;61281;-62
2023/07/25 11:13:41;;;;;;;4.10;3.60;;;;;;;37.21;28.04;99739.25;104916;1263;59735;-63
2023/07/25 11:16:10;;;;;;;5.50;3.80;;;;;;;37.36;26.83;99741.00;104848;1260;64865;-62
2023/07/25 11:18:47;;;;;;;5.10;3.90;;;;;;;37.39;26.87;99743.36;104802;1261;61147;-62
2023/07/25 11:21:14;;;;;;;4.60;3.90;;;;;;;37.31;26.38;99742.27;104607;1264;62771;-64
2023/07/25 11:23:41;;;;;;;3.80;3.30;;;;;;;37.27;26.62;99737.27;104839;1264;61149;-66
2023/07/25 11:26:08;;;;;;;5.00;4.50;;;;;;;37.32;26.36;99736.30;104818;1263;61238;-64